sensor_id;sensor_type;location;lat;lon;timestamp;temperature;humidity
53978;DHT22;39886;47.984;-1.586;2023-03-13T00:02:11;17.30;66.20
53978;DHT22;39886;47.984;-1.586;2023-03-13T00:04:37;17.30;66.20
53978;DHT22;39886;47.984;-1.586;2023-03-13T00:07:03;17.30;66.20
53978;DHT22;39886;47.984;-1.586;2023-03-13T00:09:29;17.30;66.20
53978;DHT22;39886;47.984;-1.586;2023-03-13T00:11:55;17.30;66.30
53978;DHT22;39886;47.984;-1.586;2023-03-13T00:14:21;17.30;66.30
53978;DHT22;39886;47.984;-1.586;2023-03-13T00:16:47;17.30;66.20
53978;DHT22;39886;47.984;-1.586;2023-03-13T00:19:14;17.30;66.30
53978;DHT22;39886;47.984;-1.586;2023-03-13T00:21:40;17.30;66.20
53978;DHT22;39886;47.984;-1.586;2023-03-13T00:24:08;17.30;66.20
53978;DHT22;39886;47.984;-1.586;2023-03-13T00:26:34;17.30;66.30
53978;DHT22;39886;47.984;-1.586;2023-03-13T00:28:59;17.30;66.30
53978;DHT22;39886;47.984;-1.586;2023-03-13T00:31:30;17.30;66.30
53978;DHT22;39886;47.984;-1.586;2023-03-13T00:33:59;17.30;66.30
53978;DHT22;39886;47.984;-1.586;2023-03-13T00:36:27;17.30;66.40
53978;DHT22;39886;47.984;-1.586;2023-03-13T00:38:55;17.30;66.30
53978;DHT22;39886;47.984;-1.586;2023-03-13T00:41:24;17.30;67.00
53978;DHT22;39886;47.984;-1.586;2023-03-13T00:43:51;17.30;66.30
53978;DHT22;39886;47.984;-1.586;2023-03-13T00:46:20;17.30;66.30
53978;DHT22;39886;47.984;-1.586;2023-03-13T00:48:46;17.30;66.30
53978;DHT22;39886;47.984;-1.586;2023-03-13T00:51:13;17.30;66.30
53978;DHT22;39886;47.984;-1.586;2023-03-13T00:53:39;17.30;66.40
53978;DHT22;39886;47.984;-1.586;2023-03-13T00:56:10;17.30;66.40
53978;DHT22;39886;47.984;-1.586;2023-03-13T00:58:38;17.30;66.40
53978;DHT22;39886;47.984;-1.586;2023-03-13T01:01:11;17.30;66.40
53978;DHT22;39886;47.984;-1.586;2023-03-13T01:03:39;17.30;66.40
53978;DHT22;39886;47.984;-1.586;2023-03-13T01:06:07;17.30;66.40
53978;DHT22;39886;47.984;-1.586;2023-03-13T01:08:34;17.30;66.40
53978;DHT22;39886;47.984;-1.586;2023-03-13T01:11:07;17.30;66.40
53978;DHT22;39886;47.984;-1.586;2023-03-13T01:13:33;17.30;66.40
53978;DHT22;39886;47.984;-1.586;2023-03-13T01:16:09;17.30;66.40
53978;DHT22;39886;47.984;-1.586;2023-03-13T01:18:37;17.30;66.50
53978;DHT22;39886;47.984;-1.586;2023-03-13T01:21:04;17.30;66.40
53978;DHT22;39886;47.984;-1.586;2023-03-13T01:23:30;17.30;66.40
53978;DHT22;39886;47.984;-1.586;2023-03-13T01:25:56;17.30;66.40
53978;DHT22;39886;47.984;-1.586;2023-03-13T01:28:23;17.30;66.40
53978;DHT22;39886;47.984;-1.586;2023-03-13T01:30:49;17.30;66.40
53978;DHT22;39886;47.984;-1.586;2023-03-13T01:33:15;17.30;66.40
53978;DHT22;39886;47.984;-1.586;2023-03-13T01:35:41;17.30;66.40
53978;DHT22;39886;47.984;-1.586;2023-03-13T01:38:08;17.30;66.40
53978;DHT22;39886;47.984;-1.586;2023-03-13T01:40:45;17.30;66.40
53978;DHT22;39886;47.984;-1.586;2023-03-13T01:43:26;17.30;66.40
53978;DHT22;39886;47.984;-1.586;2023-03-13T01:50:59;17.30;66.40
53978;DHT22;39886;47.984;-1.586;2023-03-13T01:53:27;17.30;66.40
53978;DHT22;39886;47.984;-1.586;2023-03-13T01:55:56;17.30;66.40
53978;DHT22;39886;47.984;-1.586;2023-03-13T01:58:24;17.30;66.40
53978;DHT22;39886;47.984;-1.586;2023-03-13T02:00:50;17.30;67.10
53978;DHT22;39886;47.984;-1.586;2023-03-13T02:03:19;17.30;66.40
53978;DHT22;39886;47.984;-1.586;2023-03-13T02:05:47;17.30;66.40
53978;DHT22;39886;47.984;-1.586;2023-03-13T02:08:22;17.30;66.40
53978;DHT22;39886;47.984;-1.586;2023-03-13T02:11:02;17.30;66.40
53978;DHT22;39886;47.984;-1.586;2023-03-13T02:13:29;17.30;66.40
53978;DHT22;39886;47.984;-1.586;2023-03-13T02:15:55;17.30;66.40
53978;DHT22;39886;47.984;-1.586;2023-03-13T02:18:21;17.30;66.40
53978;DHT22;39886;47.984;-1.586;2023-03-13T02:20:49;17.30;66.30
53978;DHT22;39886;47.984;-1.586;2023-03-13T02:23:28;17.30;66.30
53978;DHT22;39886;47.984;-1.586;2023-03-13T02:25:55;17.30;67.00
53978;DHT22;39886;47.984;-1.586;2023-03-13T02:28:27;17.30;66.30
53978;DHT22;39886;47.984;-1.586;2023-03-13T02:30:58;17.30;66.30
53978;DHT22;39886;47.984;-1.586;2023-03-13T02:33:30;17.30;66.30
53978;DHT22;39886;47.984;-1.586;2023-03-13T02:35:58;17.30;66.30
53978;DHT22;39886;47.984;-1.586;2023-03-13T02:38:29;17.30;66.30
53978;DHT22;39886;47.984;-1.586;2023-03-13T02:40:58;17.30;66.40
53978;DHT22;39886;47.984;-1.586;2023-03-13T02:43:33;17.30;66.40
53978;DHT22;39886;47.984;-1.586;2023-03-13T02:48:38;17.30;66.40
53978;DHT22;39886;47.984;-1.586;2023-03-13T02:51:10;17.30;66.40
53978;DHT22;39886;47.984;-1.586;2023-03-13T02:53:37;17.30;66.40
53978;DHT22;39886;47.984;-1.586;2023-03-13T02:56:03;17.30;66.30
53978;DHT22;39886;47.984;-1.586;2023-03-13T02:58:37;17.30;66.50
53978;DHT22;39886;47.984;-1.586;2023-03-13T03:01:03;17.30;66.50
53978;DHT22;39886;47.984;-1.586;2023-03-13T03:03:33;17.30;66.50
53978;DHT22;39886;47.984;-1.586;2023-03-13T03:05:59;17.30;66.60
53978;DHT22;39886;47.984;-1.586;2023-03-13T03:08:25;17.30;66.60
53978;DHT22;39886;47.984;-1.586;2023-03-13T03:10:51;17.30;66.60
53978;DHT22;39886;47.984;-1.586;2023-03-13T03:13:17;17.30;66.60
53978;DHT22;39886;47.984;-1.586;2023-03-13T03:15:43;17.30;66.60
53978;DHT22;39886;47.984;-1.586;2023-03-13T03:18:08;17.30;66.60
53978;DHT22;39886;47.984;-1.586;2023-03-13T03:20:34;17.30;66.60
53978;DHT22;39886;47.984;-1.586;2023-03-13T03:23:00;17.30;66.60
53978;DHT22;39886;47.984;-1.586;2023-03-13T03:25:25;17.20;66.60
53978;DHT22;39886;47.984;-1.586;2023-03-13T03:27:51;17.30;66.70
53978;DHT22;39886;47.984;-1.586;2023-03-13T03:30:17;17.20;66.70
53978;DHT22;39886;47.984;-1.586;2023-03-13T03:32:43;17.20;66.60
53978;DHT22;39886;47.984;-1.586;2023-03-13T03:35:09;17.20;66.70
53978;DHT22;39886;47.984;-1.586;2023-03-13T03:37:34;17.20;66.60
53978;DHT22;39886;47.984;-1.586;2023-03-13T03:40:00;17.30;66.80
53978;DHT22;39886;47.984;-1.586;2023-03-13T03:42:26;17.20;66.70
53978;DHT22;39886;47.984;-1.586;2023-03-13T03:44:52;17.20;66.80
53978;DHT22;39886;47.984;-1.586;2023-03-13T03:47:17;17.20;66.70
53978;DHT22;39886;47.984;-1.586;2023-03-13T03:49:43;17.20;66.80
53978;DHT22;39886;47.984;-1.586;2023-03-13T03:52:09;17.20;66.90
53978;DHT22;39886;47.984;-1.586;2023-03-13T03:54:34;17.20;66.90
53978;DHT22;39886;47.984;-1.586;2023-03-13T03:57:00;17.20;66.90
53978;DHT22;39886;47.984;-1.586;2023-03-13T03:59:26;17.20;66.90
53978;DHT22;39886;47.984;-1.586;2023-03-13T04:01:52;17.20;66.90
53978;DHT22;39886;47.984;-1.586;2023-03-13T04:04:17;17.20;66.90
53978;DHT22;39886;47.984;-1.586;2023-03-13T04:06:43;17.30;66.80
53978;DHT22;39886;47.984;-1.586;2023-03-13T04:09:09;17.40;66.60
53978;DHT22;39886;47.984;-1.586;2023-03-13T04:11:35;17.50;66.30
53978;DHT22;39886;47.984;-1.586;2023-03-13T04:14:00;17.60;66.00
53978;DHT22;39886;47.984;-1.586;2023-03-13T04:16:26;17.70;65.80
53978;DHT22;39886;47.984;-1.586;2023-03-13T04:18:52;17.80;65.60
53978;DHT22;39886;47.984;-1.586;2023-03-13T04:21:18;17.80;65.40
53978;DHT22;39886;47.984;-1.586;2023-03-13T04:23:44;18.00;65.30
53978;DHT22;39886;47.984;-1.586;2023-03-13T04:26:09;18.00;65.10
53978;DHT22;39886;47.984;-1.586;2023-03-13T04:28:35;18.10;64.90
53978;DHT22;39886;47.984;-1.586;2023-03-13T04:31:01;18.10;64.80
53978;DHT22;39886;47.984;-1.586;2023-03-13T04:33:27;18.20;64.60
53978;DHT22;39886;47.984;-1.586;2023-03-13T04:35:52;18.30;64.50
53978;DHT22;39886;47.984;-1.586;2023-03-13T04:38:18;18.40;64.40
53978;DHT22;39886;47.984;-1.586;2023-03-13T04:40:45;18.40;64.20
53978;DHT22;39886;47.984;-1.586;2023-03-13T04:43:11;18.40;64.00
53978;DHT22;39886;47.984;-1.586;2023-03-13T04:45:37;18.50;64.60
53978;DHT22;39886;47.984;-1.586;2023-03-13T04:48:03;18.50;63.90
53978;DHT22;39886;47.984;-1.586;2023-03-13T04:50:28;18.60;63.90
53978;DHT22;39886;47.984;-1.586;2023-03-13T04:52:54;18.60;63.70
53978;DHT22;39886;47.984;-1.586;2023-03-13T04:55:20;18.70;63.70
53978;DHT22;39886;47.984;-1.586;2023-03-13T04:57:45;18.70;63.70
53978;DHT22;39886;47.984;-1.586;2023-03-13T05:00:12;18.80;63.60
53978;DHT22;39886;47.984;-1.586;2023-03-13T05:02:37;18.80;63.50
53978;DHT22;39886;47.984;-1.586;2023-03-13T05:05:03;18.80;63.60
53978;DHT22;39886;47.984;-1.586;2023-03-13T05:07:29;18.90;63.40
53978;DHT22;39886;47.984;-1.586;2023-03-13T05:09:55;18.90;63.40
53978;DHT22;39886;47.984;-1.586;2023-03-13T05:12:21;19.00;63.30
53978;DHT22;39886;47.984;-1.586;2023-03-13T05:14:46;19.00;63.20
53978;DHT22;39886;47.984;-1.586;2023-03-13T05:17:14;19.00;63.20
53978;DHT22;39886;47.984;-1.586;2023-03-13T05:19:42;19.00;63.10
53978;DHT22;39886;47.984;-1.586;2023-03-13T05:22:08;19.10;63.10
53978;DHT22;39886;47.984;-1.586;2023-03-13T05:24:34;19.10;63.00
53978;DHT22;39886;47.984;-1.586;2023-03-13T05:26:59;19.20;63.00
53978;DHT22;39886;47.984;-1.586;2023-03-13T05:29:27;19.20;63.00
53978;DHT22;39886;47.984;-1.586;2023-03-13T05:31:52;19.20;62.90
53978;DHT22;39886;47.984;-1.586;2023-03-13T05:34:18;19.30;62.80
53978;DHT22;39886;47.984;-1.586;2023-03-13T05:36:44;19.30;62.80
53978;DHT22;39886;47.984;-1.586;2023-03-13T05:39:10;19.30;62.70
53978;DHT22;39886;47.984;-1.586;2023-03-13T05:41:35;19.30;62.70
53978;DHT22;39886;47.984;-1.586;2023-03-13T05:44:01;19.40;62.70
53978;DHT22;39886;47.984;-1.586;2023-03-13T05:46:27;19.40;62.60
53978;DHT22;39886;47.984;-1.586;2023-03-13T05:48:53;19.40;62.60
53978;DHT22;39886;47.984;-1.586;2023-03-13T05:51:18;19.50;62.60
53978;DHT22;39886;47.984;-1.586;2023-03-13T05:53:44;19.50;62.50
53978;DHT22;39886;47.984;-1.586;2023-03-13T05:56:10;19.50;62.50
53978;DHT22;39886;47.984;-1.586;2023-03-13T05:58:35;19.50;62.40
53978;DHT22;39886;47.984;-1.586;2023-03-13T06:01:06;19.60;62.50
53978;DHT22;39886;47.984;-1.586;2023-03-13T06:03:32;19.60;62.20
53978;DHT22;39886;47.984;-1.586;2023-03-13T06:05:59;19.60;62.20
53978;DHT22;39886;47.984;-1.586;2023-03-13T06:08:25;19.60;62.20
53978;DHT22;39886;47.984;-1.586;2023-03-13T06:10:52;19.60;62.20
53978;DHT22;39886;47.984;-1.586;2023-03-13T06:13:18;19.70;62.20
53978;DHT22;39886;47.984;-1.586;2023-03-13T06:15:50;19.70;62.10
53978;DHT22;39886;47.984;-1.586;2023-03-13T06:18:16;19.70;62.00
53978;DHT22;39886;47.984;-1.586;2023-03-13T06:20:42;19.70;62.30
53978;DHT22;39886;47.984;-1.586;2023-03-13T06:23:08;19.70;62.00
53978;DHT22;39886;47.984;-1.586;2023-03-13T06:25:34;19.80;62.00
53978;DHT22;39886;47.984;-1.586;2023-03-13T06:28:00;19.80;61.90
53978;DHT22;39886;47.984;-1.586;2023-03-13T06:30:25;19.80;62.50
53978;DHT22;39886;47.984;-1.586;2023-03-13T06:32:51;19.80;61.80
53978;DHT22;39886;47.984;-1.586;2023-03-13T06:35:17;19.80;61.70
53978;DHT22;39886;47.984;-1.586;2023-03-13T06:37:43;19.90;61.70
53978;DHT22;39886;47.984;-1.586;2023-03-13T06:40:09;19.90;61.70
53978;DHT22;39886;47.984;-1.586;2023-03-13T06:42:35;19.90;61.60
53978;DHT22;39886;47.984;-1.586;2023-03-13T06:45:01;19.90;61.50
53978;DHT22;39886;47.984;-1.586;2023-03-13T06:47:32;20.00;61.50
53978;DHT22;39886;47.984;-1.586;2023-03-13T06:49:58;20.00;61.50
53978;DHT22;39886;47.984;-1.586;2023-03-13T06:52:24;20.00;61.40
53978;DHT22;39886;47.984;-1.586;2023-03-13T06:54:50;20.00;61.30
53978;DHT22;39886;47.984;-1.586;2023-03-13T06:57:16;20.00;61.30
53978;DHT22;39886;47.984;-1.586;2023-03-13T06:59:41;20.10;61.30
53978;DHT22;39886;47.984;-1.586;2023-03-13T07:02:12;20.10;61.20
53978;DHT22;39886;47.984;-1.586;2023-03-13T07:04:38;20.10;61.20
53978;DHT22;39886;47.984;-1.586;2023-03-13T07:07:04;20.10;61.20
53978;DHT22;39886;47.984;-1.586;2023-03-13T07:09:30;20.10;61.10
53978;DHT22;39886;47.984;-1.586;2023-03-13T07:11:55;20.10;61.20
53978;DHT22;39886;47.984;-1.586;2023-03-13T07:14:23;20.20;61.30
53978;DHT22;39886;47.984;-1.586;2023-03-13T07:16:49;20.20;61.10
53978;DHT22;39886;47.984;-1.586;2023-03-13T07:19:14;20.20;61.00
53978;DHT22;39886;47.984;-1.586;2023-03-13T07:21:40;20.20;61.00
53978;DHT22;39886;47.984;-1.586;2023-03-13T07:24:06;20.20;60.90
53978;DHT22;39886;47.984;-1.586;2023-03-13T07:26:32;20.20;60.90
53978;DHT22;39886;47.984;-1.586;2023-03-13T07:28:58;20.30;60.80
53978;DHT22;39886;47.984;-1.586;2023-03-13T07:31:24;20.30;60.70
53978;DHT22;39886;47.984;-1.586;2023-03-13T07:33:52;20.30;60.70
53978;DHT22;39886;47.984;-1.586;2023-03-13T07:36:18;20.30;60.80
53978;DHT22;39886;47.984;-1.586;2023-03-13T07:38:51;20.30;60.80
53978;DHT22;39886;47.984;-1.586;2023-03-13T07:41:18;20.40;60.60
53978;DHT22;39886;47.984;-1.586;2023-03-13T07:43:44;20.40;61.10
53978;DHT22;39886;47.984;-1.586;2023-03-13T07:46:15;20.40;60.90
53978;DHT22;39886;47.984;-1.586;2023-03-13T07:48:45;20.40;60.70
53978;DHT22;39886;47.984;-1.586;2023-03-13T07:51:21;20.40;60.70
53978;DHT22;39886;47.984;-1.586;2023-03-13T07:53:47;20.50;60.30
53978;DHT22;39886;47.984;-1.586;2023-03-13T07:56:15;20.50;60.60
53978;DHT22;39886;47.984;-1.586;2023-03-13T07:58:41;20.50;60.90
53978;DHT22;39886;47.984;-1.586;2023-03-13T08:01:16;20.50;61.20
53978;DHT22;39886;47.984;-1.586;2023-03-13T08:03:42;20.60;61.20
53978;DHT22;39886;47.984;-1.586;2023-03-13T08:06:13;20.60;61.30
53978;DHT22;39886;47.984;-1.586;2023-03-13T08:08:39;20.70;61.30
53978;DHT22;39886;47.984;-1.586;2023-03-13T08:11:18;20.70;61.30
53978;DHT22;39886;47.984;-1.586;2023-03-13T08:13:45;20.70;61.40
53978;DHT22;39886;47.984;-1.586;2023-03-13T08:16:14;20.70;61.50
53978;DHT22;39886;47.984;-1.586;2023-03-13T08:18:42;20.80;61.20
53978;DHT22;39886;47.984;-1.586;2023-03-13T08:21:12;20.80;61.20
53978;DHT22;39886;47.984;-1.586;2023-03-13T08:23:39;20.90;61.40
53978;DHT22;39886;47.984;-1.586;2023-03-13T08:28:31;21.00;62.00
53978;DHT22;39886;47.984;-1.586;2023-03-13T08:30:56;21.00;61.90
53978;DHT22;39886;47.984;-1.586;2023-03-13T08:33:22;21.00;62.40
53978;DHT22;39886;47.984;-1.586;2023-03-13T08:35:48;21.00;62.30
53978;DHT22;39886;47.984;-1.586;2023-03-13T08:38:14;21.10;62.60
53978;DHT22;39886;47.984;-1.586;2023-03-13T08:40:40;21.10;62.70
53978;DHT22;39886;47.984;-1.586;2023-03-13T08:43:06;21.10;62.60
53978;DHT22;39886;47.984;-1.586;2023-03-13T08:45:31;21.20;62.70
53978;DHT22;39886;47.984;-1.586;2023-03-13T08:47:57;21.20;62.50
53978;DHT22;39886;47.984;-1.586;2023-03-13T08:50:23;21.10;62.60
53978;DHT22;39886;47.984;-1.586;2023-03-13T08:52:48;21.10;62.90
53978;DHT22;39886;47.984;-1.586;2023-03-13T08:55:14;21.00;62.90
53978;DHT22;39886;47.984;-1.586;2023-03-13T08:57:40;21.00;63.50
53978;DHT22;39886;47.984;-1.586;2023-03-13T09:00:06;20.90;63.70
53978;DHT22;39886;47.984;-1.586;2023-03-13T09:02:33;20.90;63.70
53978;DHT22;39886;47.984;-1.586;2023-03-13T09:04:58;20.90;63.70
53978;DHT22;39886;47.984;-1.586;2023-03-13T09:07:24;20.80;63.80
53978;DHT22;39886;47.984;-1.586;2023-03-13T09:09:50;20.80;63.90
53978;DHT22;39886;47.984;-1.586;2023-03-13T09:12:16;20.80;63.80
53978;DHT22;39886;47.984;-1.586;2023-03-13T09:14:41;20.80;64.10
53978;DHT22;39886;47.984;-1.586;2023-03-13T09:17:07;20.80;64.10
53978;DHT22;39886;47.984;-1.586;2023-03-13T09:19:33;20.70;64.40
53978;DHT22;39886;47.984;-1.586;2023-03-13T09:21:59;20.70;64.20
53978;DHT22;39886;47.984;-1.586;2023-03-13T09:24:25;20.70;64.70
53978;DHT22;39886;47.984;-1.586;2023-03-13T09:26:50;20.70;64.70
53978;DHT22;39886;47.984;-1.586;2023-03-13T09:29:16;20.70;64.70
53978;DHT22;39886;47.984;-1.586;2023-03-13T09:31:42;20.60;64.70
53978;DHT22;39886;47.984;-1.586;2023-03-13T09:34:08;20.60;64.90
53978;DHT22;39886;47.984;-1.586;2023-03-13T09:36:33;20.60;64.90
53978;DHT22;39886;47.984;-1.586;2023-03-13T09:39:00;20.60;64.90
53978;DHT22;39886;47.984;-1.586;2023-03-13T09:41:38;20.60;65.00
53978;DHT22;39886;47.984;-1.586;2023-03-13T09:44:24;20.60;65.40
53978;DHT22;39886;47.984;-1.586;2023-03-13T09:50:14;20.60;65.10
53978;DHT22;39886;47.984;-1.586;2023-03-13T09:52:41;20.60;65.20
53978;DHT22;39886;47.984;-1.586;2023-03-13T09:55:22;20.50;65.30
53978;DHT22;39886;47.984;-1.586;2023-03-13T10:00:39;20.50;65.40
53978;DHT22;39886;47.984;-1.586;2023-03-13T10:03:19;20.50;65.70
53978;DHT22;39886;47.984;-1.586;2023-03-13T10:05:59;20.60;65.70
53978;DHT22;39886;47.984;-1.586;2023-03-13T10:08:29;20.60;65.70
53978;DHT22;39886;47.984;-1.586;2023-03-13T10:18:58;20.60;65.90
53978;DHT22;39886;47.984;-1.586;2023-03-13T10:21:32;20.60;66.00
53978;DHT22;39886;47.984;-1.586;2023-03-13T10:24:26;20.60;65.90
53978;DHT22;39886;47.984;-1.586;2023-03-13T10:26:55;20.60;66.00
53978;DHT22;39886;47.984;-1.586;2023-03-13T10:29:27;20.60;66.20
53978;DHT22;39886;47.984;-1.586;2023-03-13T10:31:58;20.60;66.20
53978;DHT22;39886;47.984;-1.586;2023-03-13T10:34:27;20.60;66.50
53978;DHT22;39886;47.984;-1.586;2023-03-13T10:36:57;20.60;66.20
53978;DHT22;39886;47.984;-1.586;2023-03-13T10:39:26;20.60;66.20
53978;DHT22;39886;47.984;-1.586;2023-03-13T10:42:07;20.60;66.40
53978;DHT22;39886;47.984;-1.586;2023-03-13T10:44:34;20.60;66.40
53978;DHT22;39886;47.984;-1.586;2023-03-13T10:47:01;20.50;66.60
53978;DHT22;39886;47.984;-1.586;2023-03-13T10:49:29;20.60;66.50
53978;DHT22;39886;47.984;-1.586;2023-03-13T10:52:00;20.60;66.50
53978;DHT22;39886;47.984;-1.586;2023-03-13T10:54:38;20.60;66.60
53978;DHT22;39886;47.984;-1.586;2023-03-13T10:59:48;20.60;67.30
53978;DHT22;39886;47.984;-1.586;2023-03-13T11:02:34;20.70;66.50
53978;DHT22;39886;47.984;-1.586;2023-03-13T11:07:45;20.70;66.60
53978;DHT22;39886;47.984;-1.586;2023-03-13T11:10:25;20.70;66.30
53978;DHT22;39886;47.984;-1.586;2023-03-13T11:12:53;20.80;66.40
53978;DHT22;39886;47.984;-1.586;2023-03-13T11:15:23;20.70;66.70
53978;DHT22;39886;47.984;-1.586;2023-03-13T11:18:13;20.80;66.30
53978;DHT22;39886;47.984;-1.586;2023-03-13T11:20:43;20.80;66.50
53978;DHT22;39886;47.984;-1.586;2023-03-13T11:23:20;20.80;66.20
53978;DHT22;39886;47.984;-1.586;2023-03-13T11:26:32;20.80;66.30
53978;DHT22;39886;47.984;-1.586;2023-03-13T11:28:57;20.80;66.30
53978;DHT22;39886;47.984;-1.586;2023-03-13T11:31:36;20.80;66.40
53978;DHT22;39886;47.984;-1.586;2023-03-13T11:34:23;20.80;66.20
53978;DHT22;39886;47.984;-1.586;2023-03-13T11:37:01;20.80;66.20
53978;DHT22;39886;47.984;-1.586;2023-03-13T11:50:57;20.80;65.90
53978;DHT22;39886;47.984;-1.586;2023-03-13T11:56:23;20.80;65.80
53978;DHT22;39886;47.984;-1.586;2023-03-13T11:59:16;20.90;65.70
53978;DHT22;39886;47.984;-1.586;2023-03-13T12:01:45;20.90;65.60
53978;DHT22;39886;47.984;-1.586;2023-03-13T12:06:59;20.90;65.20
53978;DHT22;39886;47.984;-1.586;2023-03-13T12:10:43;20.80;65.40
53978;DHT22;39886;47.984;-1.586;2023-03-13T12:13:06;20.90;65.30
53978;DHT22;39886;47.984;-1.586;2023-03-13T12:15:42;20.90;65.20
53978;DHT22;39886;47.984;-1.586;2023-03-13T12:34:34;20.80;64.90
53978;DHT22;39886;47.984;-1.586;2023-03-13T12:37:33;20.80;64.80
53978;DHT22;39886;47.984;-1.586;2023-03-13T12:40:22;20.80;64.70
53978;DHT22;39886;47.984;-1.586;2023-03-13T12:42:56;20.80;64.70
53978;DHT22;39886;47.984;-1.586;2023-03-13T12:45:24;20.80;64.70
53978;DHT22;39886;47.984;-1.586;2023-03-13T12:53:31;20.80;64.60
53978;DHT22;39886;47.984;-1.586;2023-03-13T12:56:12;20.90;64.50
53978;DHT22;39886;47.984;-1.586;2023-03-13T12:59:04;20.90;64.40
53978;DHT22;39886;47.984;-1.586;2023-03-13T13:01:49;21.00;64.40
53978;DHT22;39886;47.984;-1.586;2023-03-13T13:04:24;21.00;64.40
53978;DHT22;39886;47.984;-1.586;2023-03-13T13:06:57;21.10;64.40
53978;DHT22;39886;47.984;-1.586;2023-03-13T13:09:37;21.10;64.30
53978;DHT22;39886;47.984;-1.586;2023-03-13T13:12:23;21.10;64.30
53978;DHT22;39886;47.984;-1.586;2023-03-13T13:22:55;21.30;64.20
53978;DHT22;39886;47.984;-1.586;2023-03-13T13:25:33;21.20;64.40
53978;DHT22;39886;47.984;-1.586;2023-03-13T13:28:35;21.30;64.40
53978;DHT22;39886;47.984;-1.586;2023-03-13T13:31:01;21.30;64.40
53978;DHT22;39886;47.984;-1.586;2023-03-13T13:33:47;21.30;64.40
53978;DHT22;39886;47.984;-1.586;2023-03-13T13:38:46;21.40;64.30
53978;DHT22;39886;47.984;-1.586;2023-03-13T13:43:48;21.40;64.60
53978;DHT22;39886;47.984;-1.586;2023-03-13T13:46:27;21.40;64.50
53978;DHT22;39886;47.984;-1.586;2023-03-13T13:51:36;21.50;64.50
53978;DHT22;39886;47.984;-1.586;2023-03-13T13:54:32;21.50;64.50
53978;DHT22;39886;47.984;-1.586;2023-03-13T13:57:01;21.50;64.50
53978;DHT22;39886;47.984;-1.586;2023-03-13T13:59:42;21.50;64.60
53978;DHT22;39886;47.984;-1.586;2023-03-13T14:04:49;21.50;64.70
53978;DHT22;39886;47.984;-1.586;2023-03-13T14:10:25;21.60;64.60
53978;DHT22;39886;47.984;-1.586;2023-03-13T14:12:58;21.60;64.70
53978;DHT22;39886;47.984;-1.586;2023-03-13T14:15:28;21.60;64.60
53978;DHT22;39886;47.984;-1.586;2023-03-13T14:17:57;21.60;64.80
53978;DHT22;39886;47.984;-1.586;2023-03-13T14:23:01;21.70;64.50
53978;DHT22;39886;47.984;-1.586;2023-03-13T14:25:38;21.80;64.20
53978;DHT22;39886;47.984;-1.586;2023-03-13T14:28:05;21.80;64.10
53978;DHT22;39886;47.984;-1.586;2023-03-13T14:30:42;21.80;64.00
53978;DHT22;39886;47.984;-1.586;2023-03-13T14:33:08;21.80;63.90
53978;DHT22;39886;47.984;-1.586;2023-03-13T14:35:34;21.80;63.90
53978;DHT22;39886;47.984;-1.586;2023-03-13T14:38:02;21.80;64.10
53978;DHT22;39886;47.984;-1.586;2023-03-13T14:40:30;21.80;64.10
53978;DHT22;39886;47.984;-1.586;2023-03-13T14:42:59;21.70;64.00
53978;DHT22;39886;47.984;-1.586;2023-03-13T14:45:30;21.80;64.00
53978;DHT22;39886;47.984;-1.586;2023-03-13T14:48:13;21.80;63.90
53978;DHT22;39886;47.984;-1.586;2023-03-13T14:50:42;21.90;63.70
53978;DHT22;39886;47.984;-1.586;2023-03-13T14:53:19;21.90;63.90
53978;DHT22;39886;47.984;-1.586;2023-03-13T14:55:46;21.90;63.90
53978;DHT22;39886;47.984;-1.586;2023-03-13T14:58:28;21.80;63.90
53978;DHT22;39886;47.984;-1.586;2023-03-13T15:00:55;21.90;64.00
53978;DHT22;39886;47.984;-1.586;2023-03-13T15:03:28;21.80;63.90
53978;DHT22;39886;47.984;-1.586;2023-03-13T15:06:13;21.80;64.00
53978;DHT22;39886;47.984;-1.586;2023-03-13T15:08:42;21.80;64.10
53978;DHT22;39886;47.984;-1.586;2023-03-13T15:11:30;21.70;64.00
53978;DHT22;39886;47.984;-1.586;2023-03-13T15:13:58;21.80;64.30
53978;DHT22;39886;47.984;-1.586;2023-03-13T15:16:24;21.80;64.30
53978;DHT22;39886;47.984;-1.586;2023-03-13T15:18:51;21.70;64.30
53978;DHT22;39886;47.984;-1.586;2023-03-13T15:21:29;21.70;64.50
53978;DHT22;39886;47.984;-1.586;2023-03-13T15:23:59;21.70;64.60
53978;DHT22;39886;47.984;-1.586;2023-03-13T15:26:27;21.70;64.70
53978;DHT22;39886;47.984;-1.586;2023-03-13T15:28:53;21.60;64.70
53978;DHT22;39886;47.984;-1.586;2023-03-13T15:31:22;21.60;64.90
53978;DHT22;39886;47.984;-1.586;2023-03-13T15:33:54;21.60;64.90
53978;DHT22;39886;47.984;-1.586;2023-03-13T15:36:21;21.50;64.90
53978;DHT22;39886;47.984;-1.586;2023-03-13T15:38:47;21.50;65.50
53978;DHT22;39886;47.984;-1.586;2023-03-13T15:41:12;21.50;65.10
53978;DHT22;39886;47.984;-1.586;2023-03-13T15:43:38;21.50;65.10
53978;DHT22;39886;47.984;-1.586;2023-03-13T15:46:08;21.50;65.20
53978;DHT22;39886;47.984;-1.586;2023-03-13T15:48:35;21.50;65.10
53978;DHT22;39886;47.984;-1.586;2023-03-13T15:51:02;21.40;65.30
53978;DHT22;39886;47.984;-1.586;2023-03-13T15:53:33;21.40;65.50
53978;DHT22;39886;47.984;-1.586;2023-03-13T15:56:08;21.40;65.50
53978;DHT22;39886;47.984;-1.586;2023-03-13T15:58:36;21.40;65.50
53978;DHT22;39886;47.984;-1.586;2023-03-13T16:01:02;21.40;65.70
53978;DHT22;39886;47.984;-1.586;2023-03-13T16:03:27;21.40;65.70
53978;DHT22;39886;47.984;-1.586;2023-03-13T16:05:55;21.40;65.80
53978;DHT22;39886;47.984;-1.586;2023-03-13T16:08:26;21.40;65.60
53978;DHT22;39886;47.984;-1.586;2023-03-13T16:10:52;21.40;65.80
53978;DHT22;39886;47.984;-1.586;2023-03-13T16:13:18;21.40;65.80
53978;DHT22;39886;47.984;-1.586;2023-03-13T16:15:44;21.40;66.00
53978;DHT22;39886;47.984;-1.586;2023-03-13T16:18:21;21.40;66.10
53978;DHT22;39886;47.984;-1.586;2023-03-13T16:20:48;21.40;66.00
53978;DHT22;39886;47.984;-1.586;2023-03-13T16:23:14;21.40;66.10
53978;DHT22;39886;47.984;-1.586;2023-03-13T16:25:42;21.40;66.20
53978;DHT22;39886;47.984;-1.586;2023-03-13T16:28:11;21.40;66.20
53978;DHT22;39886;47.984;-1.586;2023-03-13T16:30:38;21.30;66.20
53978;DHT22;39886;47.984;-1.586;2023-03-13T16:33:06;21.30;66.20
53978;DHT22;39886;47.984;-1.586;2023-03-13T16:35:32;21.30;66.20
53978;DHT22;39886;47.984;-1.586;2023-03-13T16:37:59;21.30;66.20
53978;DHT22;39886;47.984;-1.586;2023-03-13T16:40:28;21.30;66.40
53978;DHT22;39886;47.984;-1.586;2023-03-13T16:42:54;21.20;66.30
53978;DHT22;39886;47.984;-1.586;2023-03-13T16:45:20;21.20;66.40
53978;DHT22;39886;47.984;-1.586;2023-03-13T16:47:46;21.20;66.70
53978;DHT22;39886;47.984;-1.586;2023-03-13T16:50:27;21.10;66.50
53978;DHT22;39886;47.984;-1.586;2023-03-13T16:52:55;21.20;66.90
53978;DHT22;39886;47.984;-1.586;2023-03-13T16:55:22;21.10;66.60
53978;DHT22;39886;47.984;-1.586;2023-03-13T16:58:00;21.10;66.70
53978;DHT22;39886;47.984;-1.586;2023-03-13T17:00:29;21.00;66.90
53978;DHT22;39886;47.984;-1.586;2023-03-13T17:02:55;21.00;66.90